createdAt,value
2018-06-25T00:00:10.865Z,0
2018-06-25T00:01:21.013Z,0
2018-06-25T00:02:31.156Z,0
2018-06-25T00:03:41.326Z,0
2018-06-25T00:04:51.490Z,0
2018-06-25T00:06:01.673Z,0
2018-06-25T00:07:11.859Z,0
2018-06-25T00:08:22.077Z,0
2018-06-25T00:09:32.222Z,0
2018-06-25T00:10:42.378Z,0
2018-06-25T00:11:52.543Z,0
2018-06-25T00:13:02.705Z,0
2018-06-25T00:14:12.851Z,0
2018-06-25T00:15:22.670Z,0
2018-06-25T00:16:32.886Z,0
2018-06-25T00:17:42.801Z,0
2018-06-25T00:18:52.681Z,0
2018-06-25T00:20:02.816Z,0
2018-06-25T00:21:13.153Z,0
2018-06-25T00:22:23.038Z,0
2018-06-25T00:23:33.209Z,0
2018-06-25T00:24:43.411Z,0
2018-06-25T00:25:53.650Z,0
2018-06-25T00:27:03.801Z,0
2018-06-25T00:28:13.990Z,0
2018-06-25T00:29:24.221Z,0
2018-06-25T00:30:34.431Z,0
2018-06-25T00:31:44.670Z,0
2018-06-25T00:32:54.852Z,0
2018-06-25T00:34:05.273Z,0
2018-06-25T00:35:15.426Z,0
2018-06-25T00:36:25.604Z,0
2018-06-25T00:37:35.747Z,0
2018-06-25T00:38:45.925Z,0
2018-06-25T00:39:56.591Z,0
2018-06-25T00:41:06.750Z,0
2018-06-25T00:42:16.917Z,0
2018-06-25T00:43:27.066Z,0
2018-06-25T00:44:36.980Z,0
2018-06-25T00:45:47.224Z,0
2018-06-25T00:46:57.477Z,0
2018-06-25T00:48:07.726Z,0
2018-06-25T00:49:17.894Z,0
2018-06-25T00:50:28.191Z,0
2018-06-25T00:51:38.550Z,0
2018-06-25T00:52:48.958Z,0
2018-06-25T00:53:59.129Z,0
2018-06-25T00:55:09.264Z,0
2018-06-25T00:56:19.403Z,0
2018-06-25T00:57:29.749Z,0
2018-06-25T00:58:39.877Z,0
2018-06-25T00:59:50.046Z,0
2018-06-25T01:01:00.237Z,0
2018-06-25T01:02:10.266Z,0
2018-06-25T01:03:20.415Z,0
2018-06-25T01:04:30.583Z,0
2018-06-25T01:05:40.754Z,0
2018-06-25T01:06:50.940Z,0
2018-06-25T01:08:01.240Z,0
2018-06-25T01:09:11.416Z,0
2018-06-25T01:10:21.599Z,0
2018-06-25T01:11:31.719Z,0
2018-06-25T01:12:41.880Z,0
2018-06-25T01:13:52.033Z,0
2018-06-25T01:15:02.307Z,0
2018-06-25T01:16:12.486Z,0
2018-06-25T01:17:22.627Z,0
2018-06-25T01:18:32.793Z,0
2018-06-25T01:19:42.961Z,0
2018-06-25T01:20:53.080Z,0
2018-06-25T01:22:03.459Z,0
2018-06-25T01:23:13.630Z,0
2018-06-25T01:24:23.500Z,0
2018-06-25T01:25:33.412Z,0
2018-06-25T01:26:43.620Z,0
2018-06-25T01:27:53.934Z,0
2018-06-25T01:29:04.103Z,0
2018-06-25T01:30:13.873Z,0
2018-06-25T01:31:23.758Z,0
2018-06-25T01:32:33.913Z,0
2018-06-25T01:33:44.060Z,0
2018-06-25T01:34:54.289Z,0
2018-06-25T01:36:04.425Z,0
2018-06-25T01:37:14.312Z,0
2018-06-25T01:38:24.153Z,0
2018-06-25T01:39:34.381Z,0
2018-06-25T01:40:44.572Z,0
2018-06-25T01:41:54.749Z,0
2018-06-25T01:43:04.945Z,0
2018-06-25T01:44:15.312Z,0
2018-06-25T01:45:25.467Z,0
2018-06-25T01:46:35.608Z,0
2018-06-25T01:47:45.769Z,0
2018-06-25T01:48:55.919Z,0
2018-06-25T01:50:06.144Z,0
2018-06-25T01:51:16.293Z,0
2018-06-25T01:52:26.174Z,0
2018-06-25T01:53:36.341Z,0
2018-06-25T01:54:46.418Z,0
2018-06-25T01:55:56.604Z,0
2018-06-25T01:57:06.803Z,0
2018-06-25T01:58:16.935Z,0
2018-06-25T01:59:27.052Z,0
2018-06-25T02:00:37.273Z,0
2018-06-25T02:01:47.437Z,0
2018-06-25T02:02:57.658Z,0
2018-06-25T02:04:07.791Z,0
2018-06-25T02:05:17.933Z,0
2018-06-25T02:06:28.321Z,0
2018-06-25T02:07:38.461Z,0
2018-06-25T02:08:48.642Z,0
2018-06-25T02:09:58.813Z,0
2018-06-25T02:11:09.027Z,0
2018-06-25T02:12:18.889Z,0
2018-06-25T02:13:29.059Z,4
2018-06-25T02:14:39.303Z,4
2018-06-25T02:15:49.290Z,0
2018-06-25T02:16:59.429Z,0
2018-06-25T02:18:09.607Z,4
2018-06-25T02:19:19.777Z,4
2018-06-25T02:20:29.933Z,4
2018-06-25T02:21:40.158Z,4
2018-06-25T02:22:50.347Z,4
2018-06-25T02:24:00.486Z,8
2018-06-25T02:25:10.618Z,8
2018-06-25T02:26:20.478Z,8
2018-06-25T02:27:30.662Z,12
2018-06-25T02:28:41.014Z,12
2018-06-25T02:29:51.194Z,12
2018-06-25T02:31:01.407Z,16
2018-06-25T02:32:11.705Z,16
2018-06-25T02:33:21.945Z,20
2018-06-25T02:34:31.836Z,20
2018-06-25T02:35:41.952Z,24
2018-06-25T02:36:52.118Z,28
2018-06-25T02:38:01.891Z,28
2018-06-25T02:39:11.543Z,36
2018-06-25T02:40:21.158Z,40
2018-06-25T02:41:31.039Z,48
2018-06-25T02:42:41.223Z,52
2018-06-25T02:43:51.508Z,60
2018-06-25T02:45:01.671Z,68
2018-06-25T02:46:11.839Z,72
2018-06-25T02:47:21.963Z,84
2018-06-25T02:48:32.168Z,96
2018-06-25T02:49:42.336Z,108
2018-06-25T02:50:52.265Z,116
2018-06-25T02:52:02.524Z,132
2018-06-25T02:53:12.783Z,144
2018-06-25T02:54:23.035Z,156
2018-06-25T02:55:33.212Z,172
2018-06-25T02:56:43.401Z,180
2018-06-25T02:57:53.880Z,204
2018-06-25T02:59:04.101Z,220
2018-06-25T03:00:14.489Z,236
2018-06-25T03:01:24.653Z,260
2018-06-25T03:02:35.142Z,280
2018-06-25T03:03:45.265Z,296
2018-06-25T03:04:55.639Z,316
2018-06-25T03:06:05.826Z,332
2018-06-25T03:07:15.970Z,348
2018-06-25T03:08:25.853Z,364
2018-06-25T03:09:36.019Z,388
2018-06-25T03:10:46.411Z,416
2018-06-25T03:11:56.587Z,440
2018-06-25T03:13:06.730Z,460
2018-06-25T03:14:16.899Z,492
2018-06-25T03:15:27.021Z,512
2018-06-25T03:16:37.170Z,540
2018-06-25T03:17:47.485Z,568
2018-06-25T03:18:57.678Z,596
2018-06-25T03:20:07.885Z,616
2018-06-25T03:21:18.034Z,640
2018-06-25T03:22:28.223Z,652
2018-06-25T03:23:38.465Z,676
2018-06-25T03:24:48.706Z,696
2018-06-25T03:25:58.959Z,720
2018-06-25T03:27:09.183Z,740
2018-06-25T03:28:19.437Z,760
2018-06-25T03:29:29.351Z,788
2018-06-25T03:30:39.498Z,824
2018-06-25T03:31:49.677Z,852
2018-06-25T03:32:59.892Z,876
2018-06-25T03:34:10.048Z,904
2018-06-25T03:35:20.263Z,936
2018-06-25T03:36:30.482Z,956
2018-06-25T03:37:40.632Z,992
2018-06-25T03:38:50.811Z,1016
2018-06-25T03:40:00.987Z,1044
2018-06-25T03:41:11.228Z,1076
2018-06-25T03:42:21.380Z,1100
2018-06-25T03:43:31.623Z,1128
2018-06-25T03:44:42.018Z,1168
2018-06-25T03:45:51.553Z,1188
2018-06-25T03:47:01.716Z,1232
2018-06-25T03:48:11.499Z,1248
2018-06-25T03:49:21.639Z,1284
2018-06-25T03:50:31.521Z,1340
2018-06-25T03:51:41.689Z,1376
2018-06-25T03:52:51.821Z,1376
2018-06-25T03:54:01.993Z,1400
2018-06-25T03:55:12.117Z,1412
2018-06-25T03:56:22.333Z,1436
2018-06-25T03:57:32.733Z,1456
2018-06-25T03:58:42.880Z,1472
2018-06-25T03:59:53.027Z,1496
2018-06-25T04:01:03.340Z,1516
2018-06-25T04:02:13.581Z,1544
2018-06-25T04:03:23.719Z,1576
2018-06-25T04:04:33.928Z,1596
2018-06-25T04:05:44.283Z,1676
2018-06-25T04:06:54.142Z,1700
2018-06-25T04:08:04.431Z,1724
2018-06-25T04:09:14.587Z,1748
2018-06-25T04:10:24.734Z,1776
2018-06-25T04:11:34.899Z,1808
2018-06-25T04:12:44.658Z,1856
2018-06-25T04:13:55.007Z,1852
2018-06-25T04:15:05.376Z,1848
2018-06-25T04:16:15.596Z,1892
2018-06-25T04:17:25.286Z,2044
2018-06-25T04:18:35.454Z,2156
2018-06-25T04:19:45.579Z,2224
2018-06-25T04:20:55.855Z,2252
2018-06-25T04:22:05.987Z,2232
2018-06-25T04:23:16.239Z,2196
2018-06-25T04:24:26.183Z,2168
2018-06-25T04:25:36.336Z,2168
2018-06-25T04:26:46.600Z,2184
2018-06-25T04:27:56.776Z,2204
2018-06-25T04:29:06.650Z,2224
2018-06-25T04:30:16.776Z,2252
2018-06-25T04:31:27.015Z,2276
2018-06-25T04:32:37.160Z,2296
2018-06-25T04:33:47.345Z,2320
2018-06-25T04:34:57.470Z,2344
2018-06-25T04:36:07.602Z,2368
2018-06-25T04:37:17.292Z,2396
2018-06-25T04:38:27.423Z,2420
2018-06-25T04:39:37.582Z,2456
2018-06-25T04:40:47.488Z,2480
2018-06-25T04:41:58.659Z,2508
2018-06-25T04:43:09.121Z,2532
2018-06-25T04:44:19.331Z,2556
2018-06-25T04:45:29.507Z,2584
2018-06-25T04:46:39.701Z,2604
2018-06-25T04:47:49.730Z,2628
2018-06-25T04:48:59.622Z,2652
2018-06-25T04:50:09.779Z,2672
2018-06-25T04:51:19.920Z,2696
2018-06-25T04:52:30.134Z,2724
2018-06-25T04:53:40.318Z,2740
2018-06-25T04:54:50.539Z,2768
2018-06-25T04:56:00.660Z,2800
2018-06-25T04:57:10.929Z,2696
2018-06-25T04:58:21.087Z,2852
2018-06-25T04:59:31.279Z,2888
2018-06-25T05:00:41.429Z,2912
2018-06-25T05:01:51.593Z,2980
2018-06-25T05:03:02.073Z,3012
2018-06-25T05:04:12.397Z,3016
2018-06-25T05:05:22.541Z,3056
2018-06-25T05:06:32.716Z,2992
2018-06-25T05:07:42.973Z,3068
2018-06-25T05:08:53.291Z,3136
2018-06-25T05:10:03.571Z,3140
2018-06-25T05:11:13.755Z,3128
2018-06-25T05:12:23.914Z,3140
2018-06-25T05:13:34.059Z,3180
2018-06-25T05:14:43.924Z,3212
2018-06-25T05:15:54.074Z,3232
2018-06-25T05:17:04.236Z,3260
2018-06-25T05:18:14.478Z,3280
2018-06-25T05:19:24.646Z,3352
2018-06-25T05:20:34.320Z,3396
2018-06-25T05:21:44.587Z,3396
2018-06-25T05:22:54.934Z,3448
2018-06-25T05:24:04.825Z,3524
2018-06-25T05:25:15.095Z,3564
2018-06-25T05:26:25.315Z,3800
2018-06-25T05:27:35.656Z,3736
2018-06-25T05:28:45.957Z,3700
2018-06-25T05:29:56.176Z,3680
2018-06-25T05:31:06.551Z,3660
2018-06-25T05:32:16.677Z,3752
2018-06-25T05:33:26.828Z,3792
2018-06-25T05:34:37.008Z,3864
2018-06-25T05:35:47.227Z,3976
2018-06-25T05:36:57.393Z,4148
2018-06-25T05:38:07.326Z,4232
2018-06-25T05:39:17.546Z,3608
2018-06-25T05:40:27.687Z,4176
2018-06-25T05:41:37.906Z,4428
2018-06-25T05:42:48.120Z,4368
2018-06-25T05:43:58.285Z,3724
2018-06-25T05:45:08.526Z,4088
2018-06-25T05:46:18.785Z,4924
2018-06-25T05:47:28.996Z,4592
2018-06-25T05:48:39.217Z,4680
2018-06-25T05:49:49.449Z,4924
2018-06-25T05:50:59.696Z,5920
2018-06-25T05:52:10.106Z,5508
2018-06-25T05:53:20.299Z,4792
2018-06-25T05:54:30.462Z,4032
2018-06-25T05:55:40.255Z,3788
2018-06-25T05:56:50.438Z,3736
2018-06-25T05:58:00.599Z,4252
2018-06-25T05:59:10.845Z,4940
2018-06-25T06:00:20.988Z,5436
2018-06-25T06:01:31.133Z,5636
2018-06-25T06:02:41.378Z,6744
2018-06-25T06:03:51.522Z,8112
2018-06-25T06:05:01.680Z,6776
2018-06-25T06:06:11.883Z,5208
2018-06-25T06:07:22.033Z,4984
2018-06-25T06:08:32.161Z,5104
2018-06-25T06:09:42.302Z,6076
2018-06-25T06:10:52.231Z,5236
2018-06-25T06:12:02.409Z,4564
2018-06-25T06:13:12.575Z,3820
2018-06-25T06:14:22.720Z,3432
2018-06-25T06:15:32.926Z,3312
2018-06-25T06:16:43.094Z,3536
2018-06-25T06:17:53.223Z,3836
2018-06-25T06:19:03.435Z,4720
2018-06-25T06:20:13.673Z,6408
2018-06-25T06:21:23.833Z,7192
2018-06-25T06:22:34.029Z,8012
2018-06-25T06:23:43.932Z,8728
2018-06-25T06:24:54.203Z,9072
2018-06-25T06:26:04.252Z,7272
2018-06-25T06:27:14.381Z,6712
2018-06-25T06:28:24.506Z,6164
2018-06-25T06:29:34.636Z,5704
2018-06-25T06:30:44.806Z,6840
2018-06-25T06:31:54.976Z,7920
2018-06-25T06:33:05.465Z,9416
2018-06-25T06:34:15.662Z,8688
2018-06-25T06:35:25.865Z,9152
2018-06-25T06:36:37.000Z,8268
2018-06-25T06:37:47.125Z,7140
2018-06-25T06:38:57.402Z,6548
2018-06-25T06:40:07.786Z,5304
2018-06-25T06:41:18.076Z,4260
2018-06-25T06:42:28.492Z,3824
2018-06-25T06:43:38.725Z,3848
2018-06-25T06:44:48.908Z,4064
2018-06-25T06:45:59.617Z,4952
2018-06-25T06:47:09.771Z,5272
2018-06-25T06:48:19.903Z,6492
2018-06-25T06:49:30.096Z,9744
2018-06-25T06:50:40.217Z,10768
2018-06-25T06:51:50.376Z,9656
2018-06-25T06:53:00.304Z,9156
2018-06-25T06:54:10.424Z,7984
2018-06-25T06:55:20.553Z,7448
2018-06-25T06:56:31.175Z,7368
2018-06-25T06:57:41.560Z,7588
2018-06-25T06:58:51.905Z,7232
2018-06-25T07:00:02.075Z,6240
2018-06-25T07:01:12.241Z,5636
2018-06-25T07:02:22.381Z,5668
2018-06-25T07:03:32.620Z,6004
2018-06-25T07:04:42.783Z,6080
2018-06-25T07:05:53.020Z,8264
2018-06-25T07:07:03.191Z,9148
2018-06-25T07:08:13.379Z,9232
2018-06-25T07:09:23.294Z,8996
2018-06-25T07:10:33.454Z,8996
2018-06-25T07:11:43.624Z,9200
2018-06-25T07:12:54.023Z,9816
2018-06-25T07:14:04.199Z,10796
2018-06-25T07:15:15.341Z,11660
2018-06-25T07:16:25.479Z,10968
2018-06-25T07:17:35.609Z,10132
2018-06-25T07:18:45.767Z,9848
2018-06-25T07:19:55.967Z,9200
2018-06-25T07:21:06.143Z,8024
2018-06-25T07:22:16.223Z,7500
2018-06-25T07:23:26.391Z,7404
2018-06-25T07:24:36.566Z,7712
2018-06-25T07:25:46.745Z,8036
2018-06-25T07:26:56.631Z,8512
2018-06-25T07:28:06.778Z,8768
2018-06-25T07:29:17.498Z,8976
2018-06-25T07:30:27.712Z,8940
2018-06-25T07:31:37.880Z,9016
2018-06-25T07:32:48.105Z,9140
2018-06-25T07:33:58.298Z,8908
2018-06-25T07:35:08.539Z,9592
2018-06-25T07:36:18.363Z,10976
2018-06-25T07:37:28.559Z,12020
2018-06-25T07:38:38.725Z,11416
2018-06-25T07:39:48.526Z,10492
2018-06-25T07:40:58.937Z,11368
2018-06-25T07:42:09.138Z,12672
2018-06-25T07:43:19.538Z,14400
2018-06-25T07:44:29.709Z,16352
2018-06-25T07:45:39.914Z,14560
2018-06-25T07:46:50.117Z,12828
2018-06-25T07:48:00.262Z,11604
2018-06-25T07:49:10.445Z,10004
2018-06-25T07:50:20.660Z,8456
2018-06-25T07:51:30.820Z,8176
2018-06-25T07:52:40.989Z,8508
2018-06-25T07:53:51.138Z,8380
2018-06-25T07:55:01.314Z,8264
2018-06-25T07:56:11.682Z,8524
2018-06-25T07:57:21.828Z,10304
2018-06-25T07:58:32.183Z,11064
2018-06-25T07:59:42.331Z,12320
2018-06-25T08:00:52.505Z,12088
2018-06-25T08:02:02.656Z,12036
2018-06-25T08:03:12.833Z,12304
2018-06-25T08:04:22.747Z,14348
2018-06-25T08:05:32.930Z,17120
2018-06-25T08:06:43.506Z,18944
2018-06-25T08:07:53.871Z,18080
2018-06-25T08:09:04.038Z,13840
2018-06-25T08:10:14.431Z,12004
2018-06-25T08:11:24.944Z,11800
2018-06-25T08:12:35.145Z,12948
2018-06-25T08:13:45.554Z,14308
2018-06-25T08:14:55.679Z,13944
2018-06-25T08:16:05.850Z,12812
2018-06-25T08:17:15.777Z,12704
2018-06-25T08:18:25.924Z,11096
2018-06-25T08:19:36.134Z,8972
2018-06-25T08:20:46.336Z,8640
2018-06-25T08:21:56.481Z,9064
2018-06-25T08:23:06.838Z,10048
2018-06-25T08:24:17.303Z,10904
2018-06-25T08:25:27.537Z,12616
2018-06-25T08:26:37.366Z,15424
2018-06-25T08:27:47.562Z,17920
2018-06-25T08:28:57.698Z,15680
2018-06-25T08:30:08.197Z,13008
2018-06-25T08:31:18.530Z,13220
2018-06-25T08:32:28.693Z,13312
2018-06-25T08:33:38.855Z,13852
2018-06-25T08:34:49.148Z,13956
2018-06-25T08:35:59.384Z,14932
2018-06-25T08:37:09.901Z,18400
2018-06-25T08:38:20.081Z,19168
2018-06-25T08:39:30.237Z,15968
2018-06-25T08:40:40.394Z,15520
2018-06-25T08:41:50.526Z,18656
2018-06-25T08:43:01.016Z,18944
2018-06-25T08:44:11.188Z,16576
2018-06-25T08:45:21.561Z,36928
2018-06-25T08:46:31.701Z,46528
2018-06-25T08:47:41.904Z,55072
2018-06-25T08:48:52.052Z,23232
2018-06-25T08:50:02.255Z,48160
2018-06-25T08:51:12.421Z,30880
2018-06-25T08:52:22.551Z,13720
2018-06-25T08:53:32.817Z,13368
2018-06-25T08:54:43.026Z,14088
2018-06-25T08:55:53.024Z,15552
2018-06-25T08:57:03.350Z,16416
2018-06-25T08:58:13.636Z,16736
2018-06-25T08:59:23.900Z,20064
2018-06-25T09:00:34.064Z,23936
2018-06-25T09:01:44.005Z,16928
2018-06-25T09:02:54.184Z,14912
2018-06-25T09:04:04.387Z,14688
2018-06-25T09:05:14.794Z,15232
2018-06-25T09:06:25.128Z,15616
2018-06-25T09:07:35.295Z,15808
2018-06-25T09:08:45.474Z,17152
2018-06-25T09:09:56.343Z,18304
2018-06-25T09:11:06.910Z,19136
2018-06-25T09:12:17.065Z,29056
2018-06-25T09:13:27.232Z,26848
2018-06-25T09:14:37.404Z,80896
2018-06-25T09:15:48.768Z,80896
2018-06-25T09:16:58.965Z,79200
2018-06-25T09:18:09.125Z,91200
2018-06-25T09:19:19.324Z,72800
2018-06-25T09:20:29.497Z,20608
2018-06-25T09:21:39.679Z,19328
2018-06-25T09:22:49.929Z,18976
2018-06-25T09:24:00.083Z,16640
2018-06-25T09:25:10.301Z,15872
2018-06-25T09:26:20.476Z,16768
2018-06-25T09:27:30.922Z,18336
2018-06-25T09:28:41.161Z,26208
2018-06-25T09:29:51.371Z,78560
2018-06-25T09:31:01.590Z,72512
2018-06-25T09:32:11.802Z,73216
2018-06-25T09:33:21.978Z,80000
2018-06-25T09:34:32.152Z,86048
2018-06-25T09:35:42.334Z,49600
2018-06-25T09:36:52.260Z,86720
2018-06-25T09:38:02.420Z,75136
2018-06-25T09:39:12.576Z,75296
2018-06-25T09:40:22.770Z,83264
2018-06-25T09:41:34.104Z,80736
2018-06-25T09:42:44.801Z,73792
2018-06-25T09:43:55.050Z,76512
2018-06-25T09:45:05.285Z,86016
2018-06-25T09:46:15.457Z,87744
2018-06-25T09:47:25.643Z,84896
2018-06-25T09:48:36.117Z,94208
2018-06-25T09:49:46.417Z,95904
2018-06-25T09:50:56.590Z,20672
2018-06-25T09:52:06.998Z,17376
2018-06-25T09:53:17.160Z,16640
2018-06-25T09:54:27.395Z,16608
2018-06-25T09:55:37.585Z,18752
2018-06-25T09:56:47.788Z,74304
2018-06-25T09:57:57.741Z,90176
2018-06-25T09:59:07.938Z,97568
2018-06-25T10:00:18.096Z,42592
2018-06-25T10:01:28.004Z,25056
2018-06-25T10:02:38.204Z,16960
2018-06-25T10:03:48.704Z,18720
2018-06-25T10:04:58.658Z,81280
2018-06-25T10:06:08.852Z,72544
2018-06-25T10:07:19.010Z,72736
2018-06-25T10:08:29.312Z,82784
2018-06-25T10:09:39.466Z,94432
2018-06-25T10:10:49.731Z,74784
2018-06-25T10:12:00.117Z,67328
2018-06-25T10:13:10.432Z,58336
2018-06-25T10:14:20.725Z,105760
2018-06-25T10:15:30.962Z,101184
2018-06-25T10:16:41.186Z,110752
2018-06-25T10:17:51.392Z,49184
2018-06-25T10:19:01.560Z,25472
2018-06-25T10:20:11.733Z,21920
2018-06-25T10:21:22.092Z,44160
2018-06-25T10:22:32.379Z,73760
2018-06-25T10:23:42.549Z,78976
2018-06-25T10:24:52.749Z,52448
2018-06-25T10:26:02.684Z,36128
2018-06-25T10:27:12.896Z,32288
2018-06-25T10:28:23.058Z,36384
2018-06-25T10:29:33.322Z,53376
2018-06-25T10:30:43.499Z,105376
2018-06-25T10:31:53.643Z,81792
2018-06-25T10:33:03.833Z,60576
2018-06-25T10:34:13.996Z,39840
2018-06-25T10:35:24.184Z,62432
2018-06-25T10:36:34.120Z,111168
2018-06-25T10:37:44.301Z,52064
2018-06-25T10:38:54.685Z,87136
2018-06-25T10:40:04.879Z,45984
2018-06-25T10:41:15.056Z,40640
2018-06-25T10:42:25.660Z,43456
2018-06-25T10:43:36.055Z,46336
2018-06-25T10:44:46.430Z,39616
2018-06-25T10:45:56.599Z,44864
2018-06-25T10:47:06.793Z,37312
2018-06-25T10:48:17.182Z,36032
2018-06-25T10:49:27.339Z,27136
2018-06-25T10:50:37.503Z,25472
2018-06-25T10:51:47.772Z,25440
2018-06-25T10:52:58.107Z,24832
2018-06-25T10:54:08.286Z,27008
2018-06-25T10:55:18.460Z,33216
2018-06-25T10:56:28.777Z,39040
2018-06-25T10:57:38.947Z,43136
2018-06-25T10:58:48.918Z,70976
2018-06-25T11:00:00.242Z,39520
2018-06-25T11:01:11.147Z,39680
2018-06-25T11:02:21.675Z,44064
2018-06-25T11:03:31.982Z,40480
2018-06-25T11:04:42.188Z,53216
2018-06-25T11:05:52.581Z,57440
2018-06-25T11:07:02.585Z,52352
2018-06-25T11:08:13.094Z,50240
2018-06-25T11:09:23.031Z,62816
2018-06-25T11:10:33.404Z,93504
2018-06-25T11:11:43.574Z,60896
2018-06-25T11:12:54.430Z,52096
2018-06-25T11:14:04.639Z,75296
2018-06-25T11:15:14.808Z,70272
2018-06-25T11:16:24.737Z,46592
2018-06-25T11:17:34.992Z,29120
2018-06-25T11:18:45.210Z,32160
2018-06-25T11:19:55.418Z,42560
2018-06-25T11:21:05.834Z,81344
2018-06-25T11:22:16.019Z,61696
2018-06-25T11:23:25.650Z,50688
2018-06-25T11:24:35.937Z,69952
2018-06-25T11:25:46.113Z,55616
2018-06-25T11:26:56.965Z,66624
2018-06-25T11:28:07.842Z,58944
2018-06-25T11:29:18.074Z,29888
2018-06-25T11:30:28.263Z,27552
2018-06-25T11:31:38.458Z,22560
2018-06-25T11:32:48.646Z,22624
2018-06-25T11:33:58.833Z,21472
2018-06-25T11:35:08.998Z,18496
2018-06-25T11:36:19.251Z,19808
2018-06-25T11:37:29.468Z,23520
2018-06-25T11:38:39.633Z,21184
2018-06-25T11:39:50.104Z,22752
2018-06-25T11:41:00.445Z,44288
2018-06-25T11:42:10.712Z,22208
2018-06-25T11:43:20.939Z,15584
2018-06-25T11:44:31.130Z,14272
2018-06-25T11:45:41.310Z,14432
2018-06-25T11:46:51.769Z,13484
2018-06-25T11:48:01.670Z,12688
2018-06-25T11:49:11.952Z,15008
2018-06-25T11:50:22.141Z,21472
2018-06-25T11:51:32.488Z,17984
2018-06-25T11:52:42.701Z,17184
2018-06-25T11:53:52.923Z,19712
2018-06-25T11:55:03.118Z,23936
2018-06-25T11:56:13.324Z,24352
2018-06-25T11:57:23.538Z,24928
2018-06-25T11:58:33.996Z,20416
2018-06-25T11:59:44.197Z,19520
2018-06-25T12:00:54.097Z,21248
2018-06-25T12:02:04.600Z,17312
2018-06-25T12:03:16.171Z,16928
2018-06-25T12:04:27.028Z,16032
2018-06-25T12:05:37.262Z,15840
2018-06-25T12:06:47.769Z,18464
2018-06-25T12:07:57.987Z,22304
2018-06-25T12:09:08.275Z,26720
2018-06-25T12:10:18.454Z,25472
2018-06-25T12:11:28.694Z,20800
2018-06-25T12:12:38.598Z,24864
2018-06-25T12:13:48.758Z,39328
2018-06-25T12:14:58.818Z,42432
2018-06-25T12:16:09.095Z,33344
2018-06-25T12:17:19.008Z,21632
2018-06-25T12:18:29.204Z,18752
2018-06-25T12:19:39.114Z,17920
2018-06-25T12:20:49.354Z,16832
2018-06-25T12:21:59.530Z,16544
2018-06-25T12:23:10.259Z,18560
2018-06-25T12:24:20.678Z,20672
2018-06-25T12:25:30.928Z,17088
2018-06-25T12:26:41.125Z,17472
2018-06-25T12:27:51.534Z,17216
2018-06-25T12:29:01.801Z,15808
2018-06-25T12:30:12.273Z,14720
2018-06-25T12:31:22.654Z,14112
2018-06-25T12:32:32.852Z,14528
2018-06-25T12:33:43.016Z,15712
2018-06-25T12:34:53.234Z,17152
2018-06-25T12:36:03.661Z,17664
2018-06-25T12:37:14.198Z,17440
2018-06-25T12:38:24.425Z,17216
2018-06-25T12:39:34.614Z,16928
2018-06-25T12:40:44.805Z,16544
2018-06-25T12:41:55.022Z,16416
2018-06-25T12:43:05.367Z,16320
2018-06-25T12:44:15.573Z,16576
2018-06-25T12:45:25.780Z,18528
2018-06-25T12:46:35.741Z,22624
2018-06-25T12:47:45.668Z,29024
2018-06-25T12:48:55.862Z,29824
2018-06-25T12:50:06.047Z,34400
2018-06-25T12:51:16.318Z,36800
2018-06-25T12:52:26.525Z,34560
2018-06-25T12:53:36.753Z,41088
2018-06-25T12:54:46.968Z,47744
2018-06-25T12:55:57.005Z,47904
2018-06-25T12:57:07.520Z,39488
2018-06-25T12:58:17.804Z,41600
2018-06-25T12:59:27.995Z,41504
2018-06-25T13:00:38.433Z,58176
2018-06-25T13:01:48.635Z,39616
2018-06-25T13:02:58.664Z,40768
2018-06-25T13:04:08.870Z,37984
2018-06-25T13:05:19.077Z,31552
2018-06-25T13:06:28.984Z,28576
2018-06-25T13:07:39.388Z,55136
2018-06-25T13:08:49.657Z,40832
2018-06-25T13:09:59.838Z,33984
2018-06-25T13:11:10.035Z,36320
2018-06-25T13:12:20.444Z,54496
2018-06-25T13:13:30.638Z,28736
2018-06-25T13:14:40.823Z,28512
2018-06-25T13:15:51.029Z,32928
2018-06-25T13:17:01.443Z,33312
2018-06-25T13:18:11.780Z,66112
2018-06-25T13:19:22.067Z,46624
2018-06-25T13:20:32.370Z,46048
2018-06-25T13:21:42.852Z,30304
2018-06-25T13:22:53.019Z,36448
2018-06-25T13:24:02.923Z,30784
2018-06-25T13:25:13.230Z,25536
2018-06-25T13:26:23.467Z,24928
2018-06-25T13:27:33.676Z,22720
2018-06-25T13:28:43.824Z,19968
2018-06-25T13:29:54.246Z,17504
2018-06-25T13:31:04.797Z,15936
2018-06-25T13:32:15.226Z,16864
2018-06-25T13:33:25.395Z,20160
2018-06-25T13:34:35.570Z,29312
2018-06-25T13:35:45.739Z,52768
2018-06-25T13:36:56.033Z,33536
2018-06-25T13:38:06.252Z,24960
2018-06-25T13:39:16.417Z,26144
2018-06-25T13:40:26.616Z,24800
2018-06-25T13:41:36.926Z,18496
2018-06-25T13:42:47.131Z,25664
2018-06-25T13:43:57.306Z,24640
2018-06-25T13:45:07.470Z,18944
2018-06-25T13:46:17.652Z,17664
2018-06-25T13:47:27.934Z,19296
2018-06-25T13:48:38.142Z,23072
2018-06-25T13:49:48.286Z,28480
2018-06-25T13:50:58.635Z,34688
2018-06-25T13:52:08.833Z,29056
2018-06-25T13:53:19.060Z,18112
2018-06-25T13:54:29.260Z,13760
2018-06-25T13:55:39.576Z,9804
2018-06-25T13:56:49.777Z,8508
2018-06-25T13:57:59.943Z,8740
2018-06-25T13:59:09.813Z,10460
2018-06-25T14:00:20.015Z,12680
2018-06-25T14:01:30.185Z,13248
2018-06-25T14:02:40.385Z,14624
2018-06-25T14:03:50.818Z,18400
2018-06-25T14:05:01.173Z,19808
2018-06-25T14:06:11.407Z,15904
2018-06-25T14:07:21.672Z,15360
2018-06-25T14:08:32.042Z,14912
2018-06-25T14:09:42.364Z,14272
2018-06-25T14:10:52.292Z,15328
2018-06-25T14:12:02.533Z,14784
2018-06-25T14:13:12.743Z,15296
2018-06-25T14:14:23.016Z,14944
2018-06-25T14:15:33.200Z,15008
2018-06-25T14:16:43.782Z,14976
2018-06-25T14:17:54.571Z,14720
2018-06-25T14:19:04.771Z,13652
2018-06-25T14:20:15.000Z,13368
2018-06-25T14:21:25.262Z,12304
2018-06-25T14:22:35.560Z,11892
2018-06-25T14:23:45.800Z,12600
2018-06-25T14:24:56.021Z,13124
2018-06-25T14:26:05.981Z,12760
2018-06-25T14:27:16.152Z,12268
2018-06-25T14:28:26.682Z,12192
2018-06-25T14:29:36.927Z,11460
2018-06-25T14:30:47.141Z,11084
2018-06-25T14:31:57.318Z,10936
2018-06-25T14:33:07.558Z,11056
2018-06-25T14:34:17.832Z,11760
2018-06-25T14:35:28.061Z,15104
2018-06-25T14:36:38.260Z,16800
2018-06-25T14:37:48.445Z,17088
2018-06-25T14:38:58.694Z,17120
2018-06-25T14:40:08.972Z,16640
2018-06-25T14:41:19.266Z,14560
2018-06-25T14:42:29.428Z,11996
2018-06-25T14:43:39.825Z,10088
2018-06-25T14:44:50.283Z,8792
2018-06-25T14:46:00.515Z,7908
2018-06-25T14:47:10.669Z,7116
2018-06-25T14:48:20.776Z,6692
2018-06-25T14:49:30.805Z,6644
2018-06-25T14:50:40.796Z,6872
2018-06-25T14:51:51.042Z,7448
2018-06-25T14:53:01.433Z,8080
2018-06-25T14:54:11.608Z,9000
2018-06-25T14:55:21.641Z,10124
2018-06-25T14:56:31.998Z,11012
2018-06-25T14:57:42.272Z,11384
2018-06-25T14:58:52.465Z,11760
2018-06-25T15:00:02.795Z,11812
2018-06-25T15:01:12.998Z,11904
2018-06-25T15:02:23.163Z,11816
2018-06-25T15:03:33.416Z,11688
2018-06-25T15:04:43.650Z,11224
2018-06-25T15:05:53.823Z,10664
2018-06-25T15:07:04.070Z,9860
2018-06-25T15:08:13.922Z,9532
2018-06-25T15:09:23.885Z,9552
2018-06-25T15:10:34.053Z,9428
2018-06-25T15:11:44.293Z,9092
2018-06-25T15:12:54.565Z,9496
2018-06-25T15:14:04.979Z,9964
2018-06-25T15:15:15.221Z,10152
2018-06-25T15:16:25.805Z,10116
2018-06-25T15:17:36.029Z,10124
2018-06-25T15:18:46.223Z,10992
2018-06-25T15:19:56.522Z,11364
2018-06-25T15:21:06.750Z,11128
2018-06-25T15:22:17.008Z,10496
2018-06-25T15:23:27.218Z,10236
2018-06-25T15:24:37.466Z,9864
2018-06-25T15:25:47.668Z,9976
2018-06-25T15:26:57.857Z,9868
2018-06-25T15:28:09.064Z,9588
2018-06-25T15:29:19.290Z,9844
2018-06-25T15:30:29.540Z,10280
2018-06-25T15:31:39.690Z,10708
2018-06-25T15:32:49.922Z,11060
2018-06-25T15:34:00.225Z,11028
2018-06-25T15:35:10.834Z,11116
2018-06-25T15:36:21.083Z,10816